الصفحة الرئيسية
METAR-TAF:

METAR-TAF

مطار :

قاعدة جوية عسكرية

Shimofusa, اليابان

دائرة عرض: 35-48N, خط طول: 140-01E, ارتفاع: 30 متر

مراقبة الطقس الحالي

تاريخ ووقت الإصدار 22 دقيقة قبل الساعة 15:22UTC
ريح 6 عقدة من الجنوب, الاتجاه يتراوح بين الجنوب و الغرب/الجنوب الغربي
درجة الحرارة 23°درجة مئوية
الرطوبة 89%
ضغط 1002 hPa
الرؤية 10 كم أو أكثر
غيوم مفككة على ارتفاع 1400 قدم
غيوم مفككة على ارتفاع 3000 قدم

METAR: RJTL 271522Z 19006KT 170V250 9999 BKN014 BKN030 23/21 Q1002 RMK 5CU014 7CU030 A2961

زمن: 00:44 (15:44 UTC)


TAF: مفقودة

أرصاد الطقس والتوقعات من أكثر من 4000 مطار (تقارير الطقس للمطار METAR والتنبؤ بالطقس بالمطارTAF).

المحطات المتاحة هي النقط الصفراء والحمراء على الخريطة.

حرك المؤشر فوق النقطة لمعرفة اسم المحطة.

ثم انقر لمعرفة أرصاد وتوقعات الطقس.

لتغيير الخارطة: اضغط على الأزرار الخضراء مع رمز الصليب الأسود للتكبير. على الزر الأخضر مع شرطة للتصغير، أو على الأسهم الخضراء للخرائط المجاورة.


METAR-TAF: